createdAt,value
2022-08-16T00:01:57.369Z,23.89
2022-08-16T00:04:02.161Z,23.90
2022-08-16T00:06:07.089Z,23.78
2022-08-16T00:08:09.085Z,23.71
2022-08-16T00:10:33.385Z,23.71
2022-08-16T00:12:35.727Z,23.70
2022-08-16T00:14:37.410Z,23.69
2022-08-16T00:17:05.505Z,23.70
2022-08-16T00:19:01.818Z,23.67
2022-08-16T00:21:04.326Z,23.65
2022-08-16T00:23:07.422Z,23.65
2022-08-16T00:25:15.206Z,23.60
2022-08-16T00:27:17.429Z,23.60
2022-08-16T00:29:19.821Z,23.52
2022-08-16T00:31:24.304Z,23.55
2022-08-16T00:33:26.354Z,23.54
2022-08-16T00:35:31.834Z,23.58
2022-08-16T00:37:57.311Z,23.57
2022-08-16T00:39:58.995Z,23.45
2022-08-16T00:44:11.103Z,23.45
2022-08-16T00:46:34.337Z,23.45
2022-08-16T00:48:44.109Z,23.50
2022-08-16T00:50:47.396Z,23.47
2022-08-16T00:52:57.193Z,23.47
2022-08-16T00:54:59.969Z,23.47
2022-08-16T00:57:02.681Z,23.46
2022-08-16T00:59:07.305Z,23.44
2022-08-16T01:01:10.652Z,23.44
2022-08-16T01:03:15.272Z,23.39
2022-08-16T01:05:19.089Z,23.33
2022-08-16T01:07:26.072Z,23.27
2022-08-16T01:09:47.728Z,23.15
2022-08-16T01:11:55.185Z,23.10
2022-08-16T01:14:19.968Z,23.03
2022-08-16T01:16:30.448Z,22.98
2022-08-16T01:18:41.306Z,22.97
2022-08-16T01:20:51.804Z,22.99
2022-08-16T01:23:08.677Z,23.00
2022-08-16T01:25:17.162Z,22.94
2022-08-16T01:27:34.352Z,22.92
2022-08-16T01:29:57.183Z,22.92
2022-08-16T01:32:00.882Z,22.91
2022-08-16T01:34:04.367Z,22.94
2022-08-16T01:36:12.268Z,22.92
2022-08-16T01:38:34.966Z,22.98
2022-08-16T01:40:36.966Z,22.97
2022-08-16T01:42:42.420Z,22.93
2022-08-16T01:44:44.540Z,22.95
2022-08-16T01:46:48.812Z,22.96
2022-08-16T01:49:00.382Z,22.87
2022-08-16T01:51:09.764Z,22.90
2022-08-16T01:53:19.519Z,22.90
2022-08-16T01:55:24.731Z,22.89
2022-08-16T01:57:28.658Z,22.86
2022-08-16T01:59:36.066Z,22.76
2022-08-16T02:01:38.224Z,22.74
2022-08-16T02:03:41.905Z,22.81
2022-08-16T02:05:46.789Z,22.87
2022-08-16T02:07:54.013Z,22.72
2022-08-16T02:09:59.582Z,22.77
2022-08-16T02:12:39.820Z,22.77
2022-08-16T02:14:31.300Z,22.75
2022-08-16T02:16:38.466Z,22.83
2022-08-16T02:18:42.755Z,22.82
2022-08-16T02:20:52.377Z,22.74
2022-08-16T02:22:58.382Z,22.71
2022-08-16T02:25:01.777Z,22.77
2022-08-16T02:27:03.776Z,22.60
2022-08-16T02:29:07.108Z,22.70
2022-08-16T02:31:16.257Z,22.73
2022-08-16T02:33:18.074Z,22.78
2022-08-16T02:35:23.007Z,22.66
2022-08-16T02:37:51.646Z,22.61
2022-08-16T02:39:47.038Z,22.71
2022-08-16T02:41:56.254Z,22.68
2022-08-16T02:44:01.727Z,22.72
2022-08-16T02:46:07.550Z,22.73
2022-08-16T02:48:28.925Z,22.73
2022-08-16T02:50:54.854Z,22.74
2022-08-16T02:52:55.702Z,22.75
2022-08-16T02:54:58.453Z,22.77
2022-08-16T02:57:01.349Z,22.74
2022-08-16T02:59:03.620Z,22.68
2022-08-16T03:01:24.809Z,22.74
2022-08-16T03:04:39.255Z,22.71
2022-08-16T03:05:58.787Z,22.70
2022-08-16T03:08:00.822Z,22.71
2022-08-16T03:10:03.895Z,22.71
2022-08-16T03:12:06.608Z,22.76
2022-08-16T03:14:09.210Z,22.72
2022-08-16T03:16:33.149Z,22.72
2022-08-16T03:18:40.396Z,22.70
2022-08-16T03:20:42.673Z,22.73
2022-08-16T03:22:57.573Z,22.81
2022-08-16T03:25:01.852Z,22.77
2022-08-16T03:27:04.445Z,22.74
2022-08-16T03:29:08.605Z,22.72
2022-08-16T03:31:10.923Z,22.71
2022-08-16T03:33:17.054Z,22.71
2022-08-16T03:35:21.251Z,22.77
2022-08-16T03:37:23.006Z,22.70
2022-08-16T03:39:25.777Z,22.72
2022-08-16T03:41:29.634Z,22.73
2022-08-16T03:44:01.245Z,22.71
2022-08-16T03:46:04.335Z,22.72
2022-08-16T03:48:07.878Z,22.72
2022-08-16T03:50:25.702Z,22.71
2022-08-16T03:52:31.433Z,22.73
2022-08-16T03:54:35.578Z,22.71
2022-08-16T03:56:37.627Z,22.71
2022-08-16T03:58:39.441Z,22.73
2022-08-16T04:00:46.745Z,22.75
2022-08-16T04:03:07.259Z,22.70
2022-08-16T04:05:10.635Z,22.70
2022-08-16T04:07:13.960Z,22.67
2022-08-16T04:09:16.665Z,22.69
2022-08-16T04:11:18.839Z,22.73
2022-08-16T04:14:00.369Z,22.74
2022-08-16T04:15:43.682Z,22.74
2022-08-16T04:17:45.807Z,22.70
2022-08-16T04:19:51.604Z,22.74
2022-08-16T04:21:56.911Z,22.75
2022-08-16T04:24:03.586Z,22.67
2022-08-16T04:26:16.876Z,22.74
2022-08-16T04:28:52.205Z,22.68
2022-08-16T04:30:41.500Z,22.52
2022-08-16T04:32:48.963Z,22.59
2022-08-16T04:34:51.352Z,22.56
2022-08-16T04:36:53.619Z,22.56
2022-08-16T04:38:56.411Z,22.52
2022-08-16T04:40:59.839Z,22.40
2022-08-16T04:43:02.358Z,22.38
2022-08-16T04:45:05.117Z,22.23
2022-08-16T04:47:21.898Z,22.35
2022-08-16T04:49:27.121Z,22.29
2022-08-16T04:51:46.142Z,22.27
2022-08-16T04:54:02.150Z,22.34
2022-08-16T04:56:05.554Z,22.36
2022-08-16T04:58:45.325Z,22.37
2022-08-16T05:00:36.165Z,22.31
2022-08-16T05:02:41.504Z,22.37
2022-08-16T05:04:44.665Z,22.39
2022-08-16T05:06:46.652Z,22.39
2022-08-16T05:08:49.507Z,22.34
2022-08-16T05:11:00.709Z,22.38
2022-08-16T05:13:07.143Z,22.39
2022-08-16T05:15:18.073Z,22.45
2022-08-16T05:17:20.516Z,22.52
2022-08-16T05:19:26.909Z,22.53
2022-08-16T05:21:38.870Z,22.58
2022-08-16T05:23:44.351Z,22.59
2022-08-16T05:25:53.734Z,22.61
2022-08-16T05:27:57.629Z,22.63
2022-08-16T05:30:33.944Z,22.67
2022-08-16T05:32:32.441Z,22.70
2022-08-16T05:34:36.299Z,22.70
2022-08-16T05:36:38.127Z,22.75
2022-08-16T05:38:46.567Z,22.71
2022-08-16T05:40:52.799Z,22.74
2022-08-16T05:43:03.544Z,22.80
2022-08-16T05:45:06.773Z,22.82
2022-08-16T05:47:08.747Z,22.65
2022-08-16T05:49:22.210Z,22.69
2022-08-16T05:51:35.360Z,22.68
2022-08-16T05:53:40.772Z,22.64
2022-08-16T05:55:43.426Z,22.51
2022-08-16T05:57:47.291Z,22.53
2022-08-16T05:59:59.616Z,22.54
2022-08-16T06:02:02.303Z,22.54
2022-08-16T06:04:12.614Z,22.47
2022-08-16T06:06:15.644Z,22.41
2022-08-16T06:08:32.479Z,22.35
2022-08-16T06:11:09.614Z,22.43
2022-08-16T06:13:05.905Z,22.56
2022-08-16T06:15:11.684Z,22.62
2022-08-16T06:17:16.958Z,22.58
2022-08-16T06:19:23.931Z,22.64
2022-08-16T06:21:25.731Z,22.65
2022-08-16T06:23:27.693Z,22.63
2022-08-16T06:25:36.738Z,22.64
2022-08-16T06:27:41.186Z,22.69
2022-08-16T06:29:44.545Z,22.68
2022-08-16T06:31:51.878Z,22.80
2022-08-16T06:33:59.279Z,22.79
2022-08-16T06:36:01.646Z,22.79
2022-08-16T06:38:04.727Z,22.80
2022-08-16T06:40:12.517Z,22.82
2022-08-16T06:42:18.888Z,22.84
2022-08-16T06:44:21.577Z,22.85
2022-08-16T06:46:31.591Z,22.83
2022-08-16T06:48:35.199Z,22.88
2022-08-16T06:50:37.085Z,22.91
2022-08-16T06:52:57.875Z,22.81
2022-08-16T06:55:01.500Z,22.82
2022-08-16T06:57:03.317Z,22.73
2022-08-16T06:59:05.378Z,22.76
2022-08-16T07:01:15.758Z,22.70
2022-08-16T07:03:28.428Z,22.72
2022-08-16T07:05:41.475Z,22.77
2022-08-16T07:07:50.822Z,22.81
2022-08-16T07:09:52.900Z,22.83
2022-08-16T07:11:55.890Z,22.89
2022-08-16T07:14:24.739Z,22.82
2022-08-16T07:16:27.634Z,22.85
2022-08-16T07:18:29.609Z,22.81
2022-08-16T07:20:47.077Z,22.82
2022-08-16T07:22:52.406Z,22.89
2022-08-16T07:24:54.875Z,22.77
2022-08-16T07:26:57.047Z,22.77
2022-08-16T07:28:58.703Z,22.77
2022-08-16T07:31:02.131Z,22.72
2022-08-16T07:33:07.028Z,22.81
2022-08-16T07:35:09.342Z,22.85
2022-08-16T07:37:11.493Z,22.84
2022-08-16T07:39:15.829Z,22.85
2022-08-16T07:41:17.748Z,22.90
2022-08-16T07:43:21.952Z,22.94
2022-08-16T07:45:23.602Z,22.99
2022-08-16T07:47:31.430Z,23.07
2022-08-16T07:49:33.712Z,23.13
2022-08-16T07:51:37.253Z,23.17
2022-08-16T07:53:43.645Z,23.14
2022-08-16T07:55:48.042Z,23.16
2022-08-16T07:58:00.721Z,23.15
2022-08-16T08:00:06.062Z,23.09
2022-08-16T08:02:21.143Z,23.21
2022-08-16T08:04:23.031Z,23.12
2022-08-16T08:06:32.333Z,23.22
2022-08-16T08:08:50.168Z,23.26
2022-08-16T08:10:53.930Z,23.31
2022-08-16T08:12:58.496Z,23.38
2022-08-16T08:15:01.911Z,23.48
2022-08-16T08:17:08.463Z,23.44
2022-08-16T08:19:12.516Z,23.55
2022-08-16T08:21:14.479Z,23.57
2022-08-16T08:23:16.174Z,23.64
2022-08-16T08:25:18.537Z,23.66
2022-08-16T08:27:22.752Z,23.77
2022-08-16T08:29:37.391Z,23.73
2022-08-16T08:31:42.504Z,23.64
2022-08-16T08:33:47.345Z,23.66
2022-08-16T08:35:56.396Z,23.65
2022-08-16T08:37:58.787Z,23.59
2022-08-16T08:40:03.737Z,23.69
2022-08-16T08:42:07.253Z,23.69
2022-08-16T08:44:28.631Z,23.78
2022-08-16T08:46:35.697Z,23.81
2022-08-16T08:48:38.049Z,23.79
2022-08-16T08:50:50.246Z,23.75
2022-08-16T08:52:53.912Z,23.82
2022-08-16T08:54:56.341Z,23.84
2022-08-16T08:56:58.002Z,23.83
2022-08-16T08:59:03.219Z,23.90
2022-08-16T09:01:14.575Z,23.86
2022-08-16T09:03:37.800Z,23.90
2022-08-16T09:05:39.517Z,23.94
2022-08-16T09:08:01.754Z,23.95
2022-08-16T09:10:06.741Z,23.80
2022-08-16T09:12:36.342Z,23.94
2022-08-16T09:14:49.497Z,23.98
2022-08-16T09:17:03.228Z,23.96
2022-08-16T09:19:13.179Z,23.96
2022-08-16T09:21:15.841Z,24.01
2022-08-16T09:23:19.846Z,24.00
2022-08-16T09:25:25.840Z,24.00
2022-08-16T09:27:29.685Z,23.91
2022-08-16T09:29:59.754Z,23.88
2022-08-16T09:32:04.010Z,23.85
2022-08-16T09:34:10.577Z,23.90
2022-08-16T09:36:31.947Z,23.85
2022-08-16T09:38:35.583Z,23.77
2022-08-16T09:40:42.773Z,23.73
2022-08-16T09:42:51.358Z,23.77
2022-08-16T09:45:11.067Z,23.77
2022-08-16T09:47:18.130Z,23.70
2022-08-16T09:49:37.280Z,23.80
2022-08-16T09:51:40.094Z,23.76
2022-08-16T09:53:43.180Z,23.84
2022-08-16T09:55:49.435Z,23.94
2022-08-16T09:57:52.925Z,23.88
2022-08-16T09:59:56.218Z,23.86
2022-08-16T10:01:59.654Z,23.81
2022-08-16T10:04:04.514Z,23.82
2022-08-16T10:06:11.080Z,23.96
2022-08-16T10:08:25.412Z,23.89
2022-08-16T10:10:30.749Z,23.85
2022-08-16T10:13:11.058Z,23.93
2022-08-16T10:15:21.204Z,23.79
2022-08-16T10:17:24.491Z,23.84
2022-08-16T10:19:26.514Z,23.72
2022-08-16T10:21:29.075Z,23.69
2022-08-16T10:23:33.700Z,23.69
2022-08-16T10:27:22.008Z,23.58
2022-08-16T10:28:27.512Z,23.56
2022-08-16T10:30:25.603Z,23.58
2022-08-16T10:32:30.646Z,23.41
2022-08-16T10:34:33.986Z,23.40
2022-08-16T10:36:38.623Z,23.40
2022-08-16T10:38:42.311Z,23.29
2022-08-16T10:40:45.468Z,23.26
2022-08-16T10:42:49.737Z,23.21
2022-08-16T10:44:54.828Z,23.13
2022-08-16T10:46:56.917Z,23.02
2022-08-16T10:48:58.646Z,22.74
2022-08-16T10:51:02.929Z,22.77
2022-08-16T10:53:07.883Z,22.79
2022-08-16T10:57:33.387Z,22.53
2022-08-16T10:59:45.786Z,22.53
2022-08-16T11:06:42.251Z,22.47
2022-08-16T11:11:26.320Z,22.44
2022-08-16T11:15:55.921Z,22.39
2022-08-16T11:20:42.248Z,22.32
2022-08-16T11:22:48.975Z,22.31
2022-08-16T11:25:11.948Z,22.16
2022-08-16T11:27:20.125Z,22.29
2022-08-16T11:29:26.782Z,22.22
2022-08-16T11:31:29.137Z,22.17
2022-08-16T11:38:46.202Z,22.18
2022-08-16T11:40:52.404Z,22.30
2022-08-16T11:42:54.830Z,22.28
2022-08-16T11:44:57.222Z,22.30
2022-08-16T11:46:59.605Z,22.28
2022-08-16T11:49:04.029Z,22.36
2022-08-16T11:51:05.960Z,22.42
2022-08-16T11:53:08.545Z,22.38
2022-08-16T11:55:12.342Z,22.39
2022-08-16T11:57:14.162Z,22.35
2022-08-16T11:59:16.454Z,22.36
2022-08-16T12:01:18.195Z,22.47
2022-08-16T12:03:35.135Z,22.60
2022-08-16T12:05:39.606Z,22.71
2022-08-16T12:07:42.006Z,22.80
2022-08-16T12:09:44.875Z,23.12
2022-08-16T12:11:47.558Z,23.37
2022-08-16T12:14:05.929Z,23.59
2022-08-16T12:16:09.210Z,23.85
2022-08-16T12:18:11.901Z,24.02
2022-08-16T12:20:29.674Z,24.11
2022-08-16T12:22:31.541Z,23.88
2022-08-16T12:24:38.363Z,23.89
2022-08-16T12:26:40.388Z,23.97
2022-08-16T12:28:56.063Z,24.09
2022-08-16T12:30:58.653Z,24.19
2022-08-16T12:33:03.373Z,24.24
2022-08-16T12:35:07.552Z,24.45
2022-08-16T12:37:11.853Z,24.63
2022-08-16T12:39:14.735Z,24.61
2022-08-16T12:41:24.347Z,24.64
2022-08-16T12:43:27.057Z,24.79
2022-08-16T12:45:43.976Z,24.98
2022-08-16T12:48:32.684Z,25.18
2022-08-16T12:50:33.306Z,25.27
2022-08-16T12:52:37.737Z,25.39
2022-08-16T12:54:43.826Z,25.45
2022-08-16T12:56:56.583Z,25.53
2022-08-16T12:58:59.476Z,25.24
2022-08-16T13:01:02.470Z,25.29
2022-08-16T13:03:04.803Z,25.25
2022-08-16T13:05:11.435Z,25.28
2022-08-16T13:07:14.025Z,25.13
2022-08-16T13:09:28.708Z,24.97
2022-08-16T13:11:41.437Z,24.94
2022-08-16T13:14:00.365Z,24.87
2022-08-16T13:16:15.326Z,24.79
2022-08-16T13:18:26.822Z,24.72
2022-08-16T13:20:36.302Z,24.84
2022-08-16T13:22:46.669Z,24.62
2022-08-16T13:24:48.677Z,24.50
2022-08-16T13:26:53.454Z,24.55
2022-08-16T13:28:55.281Z,24.57
2022-08-16T13:30:58.514Z,24.65
2022-08-16T13:33:00.582Z,24.66
2022-08-16T13:35:02.439Z,24.61
2022-08-16T13:37:04.169Z,24.62
2022-08-16T13:39:06.287Z,24.67
2022-08-16T13:41:11.551Z,24.74
2022-08-16T13:43:14.521Z,24.62
2022-08-16T13:45:17.649Z,24.72
2022-08-16T13:47:21.924Z,24.68
2022-08-16T13:49:24.938Z,24.64
2022-08-16T13:51:29.353Z,24.74
2022-08-16T13:53:32.593Z,24.81
2022-08-16T13:55:34.793Z,24.75
2022-08-16T13:58:34.278Z,24.85
2022-08-16T13:59:58.516Z,24.80
2022-08-16T14:02:02.617Z,24.68
2022-08-16T14:04:06.000Z,24.78
2022-08-16T14:06:11.710Z,24.79
2022-08-16T14:08:15.929Z,24.69
2022-08-16T14:10:19.181Z,24.85
2022-08-16T14:12:26.961Z,24.91
2022-08-16T14:14:29.985Z,24.86
2022-08-16T14:16:34.112Z,24.96
2022-08-16T14:18:36.412Z,25.08
2022-08-16T14:20:38.299Z,25.21
2022-08-16T14:22:42.806Z,25.28
2022-08-16T14:24:47.265Z,25.36
2022-08-16T14:26:49.604Z,25.49
2022-08-16T14:28:52.553Z,25.65
2022-08-16T14:30:56.871Z,25.70
2022-08-16T14:32:58.827Z,25.72
2022-08-16T14:35:15.607Z,25.62
2022-08-16T14:37:17.597Z,25.59
2022-08-16T14:39:22.065Z,25.46
2022-08-16T14:41:23.831Z,25.38
2022-08-16T14:43:25.941Z,25.33
2022-08-16T14:45:31.906Z,25.24
2022-08-16T14:47:37.370Z,25.12
2022-08-16T14:49:40.495Z,25.13
2022-08-16T14:51:46.213Z,25.16
2022-08-16T14:53:52.086Z,25.14
2022-08-16T14:55:55.096Z,25.20
2022-08-16T14:57:58.940Z,25.14
2022-08-16T15:00:06.046Z,25.02
2022-08-16T15:02:34.497Z,24.95
2022-08-16T15:04:40.003Z,24.90
2022-08-16T15:06:49.959Z,24.93
2022-08-16T15:08:52.185Z,24.88
2022-08-16T15:10:54.073Z,24.80
2022-08-16T15:12:58.514Z,24.88
2022-08-16T15:15:04.385Z,24.83
2022-08-16T15:17:14.904Z,24.88
2022-08-16T15:19:19.001Z,24.84
2022-08-16T15:21:27.231Z,24.83
2022-08-16T15:23:33.644Z,24.83
2022-08-16T15:25:41.543Z,24.82
2022-08-16T15:27:45.422Z,24.86
2022-08-16T15:29:59.037Z,24.87
2022-08-16T15:32:01.404Z,24.81
2022-08-16T15:34:05.042Z,24.79
2022-08-16T15:36:07.768Z,24.83
2022-08-16T15:38:31.611Z,24.61
2022-08-16T15:40:35.320Z,24.57
2022-08-16T15:42:37.606Z,24.47
2022-08-16T15:44:51.437Z,24.55
2022-08-16T15:46:59.870Z,24.41
2022-08-16T15:49:04.669Z,24.30
2022-08-16T15:51:08.332Z,24.30
2022-08-16T15:53:22.970Z,24.36
2022-08-16T15:55:35.183Z,24.36
2022-08-16T15:57:41.324Z,24.36
2022-08-16T15:59:48.886Z,24.35
2022-08-16T16:01:56.640Z,24.38
2022-08-16T16:04:00.075Z,24.27
2022-08-16T16:06:03.758Z,24.31
2022-08-16T16:08:11.019Z,24.28
2022-08-16T16:10:14.119Z,24.33
2022-08-16T16:12:42.059Z,24.24
2022-08-16T16:14:37.899Z,24.35
2022-08-16T16:16:41.301Z,24.34
2022-08-16T16:18:48.997Z,24.41
2022-08-16T16:20:56.077Z,24.38
2022-08-16T16:23:02.721Z,24.40
2022-08-16T16:25:05.237Z,24.45
2022-08-16T16:27:09.164Z,24.48
2022-08-16T16:29:15.220Z,24.49
2022-08-16T16:31:19.767Z,24.35
2022-08-16T16:33:25.140Z,24.44
2022-08-16T16:35:27.939Z,24.30
2022-08-16T16:37:34.420Z,24.25
2022-08-16T16:39:39.348Z,24.23
2022-08-16T16:41:42.231Z,24.30
2022-08-16T16:43:44.585Z,24.34
2022-08-16T16:45:46.660Z,24.34
2022-08-16T16:47:54.292Z,24.40
2022-08-16T16:49:56.582Z,24.52
2022-08-16T16:52:07.249Z,24.46
2022-08-16T16:54:12.972Z,24.36
2022-08-16T16:56:20.271Z,24.37
2022-08-16T16:58:53.412Z,24.31
2022-08-16T17:00:59.700Z,24.26
2022-08-16T17:03:01.969Z,24.31
2022-08-16T17:05:04.617Z,24.32
2022-08-16T17:07:12.189Z,24.31
2022-08-16T17:09:14.164Z,24.29
2022-08-16T17:11:16.230Z,24.35
2022-08-16T17:13:21.134Z,24.37
2022-08-16T17:15:25.280Z,24.28
2022-08-16T17:17:59.317Z,24.38
2022-08-16T17:20:00.148Z,24.37
2022-08-16T17:22:02.343Z,24.36
2022-08-16T17:24:17.993Z,24.40
2022-08-16T17:26:21.759Z,24.39
2022-08-16T17:28:59.629Z,24.45
2022-08-16T17:30:53.704Z,24.48
2022-08-16T17:33:02.950Z,24.54
2022-08-16T17:35:18.493Z,24.42
2022-08-16T17:37:22.259Z,24.41
2022-08-16T17:39:45.260Z,24.37
2022-08-16T17:42:10.126Z,24.37
2022-08-16T17:44:12.627Z,24.34
2022-08-16T17:46:41.501Z,24.33
2022-08-16T17:48:38.546Z,24.29
2022-08-16T17:50:41.867Z,24.33
2022-08-16T17:52:55.003Z,24.28
2022-08-16T17:54:56.845Z,24.40
2022-08-16T17:57:00.462Z,24.37
2022-08-16T17:59:02.916Z,24.36
2022-08-16T18:01:05.525Z,24.41
2022-08-16T18:03:15.032Z,24.39
2022-08-16T18:05:27.570Z,24.39
2022-08-16T18:07:29.237Z,24.31
2022-08-16T18:09:30.963Z,24.42
2022-08-16T18:11:41.358Z,24.46
2022-08-16T18:13:46.390Z,24.42
2022-08-16T18:15:48.252Z,24.30
2022-08-16T18:17:52.086Z,24.37
2022-08-16T18:19:53.735Z,24.35
2022-08-16T18:22:16.928Z,24.34
2022-08-16T18:24:19.083Z,24.29
2022-08-16T18:26:21.102Z,24.27
2022-08-16T18:28:23.626Z,24.34
2022-08-16T18:30:25.659Z,24.20
2022-08-16T18:32:28.397Z,24.24
2022-08-16T18:34:30.238Z,24.27
2022-08-16T18:36:33.440Z,24.20
2022-08-16T18:38:38.163Z,24.24
2022-08-16T18:40:41.010Z,24.25
2022-08-16T18:43:17.522Z,24.17
2022-08-16T18:45:19.459Z,24.24
2022-08-16T18:47:21.492Z,24.19
2022-08-16T18:49:23.583Z,24.15
2022-08-16T18:51:26.172Z,24.10
2022-08-16T18:53:29.192Z,24.01
2022-08-16T18:55:33.541Z,23.99
2022-08-16T18:57:37.314Z,24.05
2022-08-16T18:59:39.555Z,24.00
2022-08-16T19:01:41.503Z,24.01
2022-08-16T19:03:43.717Z,24.00
2022-08-16T19:05:55.025Z,24.02
2022-08-16T19:07:58.023Z,23.89
2022-08-16T19:10:02.144Z,23.83
2022-08-16T19:12:05.260Z,23.84
2022-08-16T19:14:07.364Z,23.78
2022-08-16T19:16:09.923Z,23.81
2022-08-16T19:18:16.712Z,23.82
2022-08-16T19:20:21.868Z,23.80
2022-08-16T19:22:52.002Z,23.82
2022-08-16T19:24:51.509Z,23.79
2022-08-16T19:26:53.810Z,23.75
2022-08-16T19:29:03.342Z,23.80
2022-08-16T19:31:14.759Z,23.74
2022-08-16T19:33:16.773Z,23.68
2022-08-16T19:35:18.993Z,23.74
2022-08-16T19:37:22.325Z,23.79
2022-08-16T19:39:25.467Z,23.70
2022-08-16T19:41:29.015Z,23.73
2022-08-16T19:43:31.713Z,23.71
2022-08-16T19:45:33.704Z,23.65
2022-08-16T19:47:35.702Z,23.69
2022-08-16T19:49:38.456Z,23.70
2022-08-16T19:51:40.466Z,23.73
2022-08-16T19:53:43.203Z,23.66
2022-08-16T19:55:45.858Z,23.73
2022-08-16T19:57:49.659Z,23.72
2022-08-16T19:59:52.586Z,23.73
2022-08-16T20:01:54.631Z,23.75
2022-08-16T20:04:04.068Z,23.72
2022-08-16T20:06:06.183Z,23.60
2022-08-16T20:08:12.955Z,23.58
2022-08-16T20:10:16.271Z,23.54
2022-08-16T20:12:21.983Z,23.60
2022-08-16T20:14:26.660Z,23.50
2022-08-16T20:16:28.923Z,23.60
2022-08-16T20:18:30.691Z,23.60
2022-08-16T20:20:32.424Z,23.61
2022-08-16T20:24:57.482Z,23.64
2022-08-16T20:26:59.215Z,23.56
2022-08-16T20:29:01.800Z,23.58
2022-08-16T20:31:03.614Z,23.61
2022-08-16T20:33:14.214Z,23.61
2022-08-16T20:35:18.646Z,23.66
2022-08-16T20:37:22.248Z,23.58
2022-08-16T20:39:24.335Z,23.63
2022-08-16T20:41:27.211Z,23.64
2022-08-16T20:43:29.038Z,23.64
2022-08-16T20:45:30.774Z,23.65
2022-08-16T20:47:32.717Z,23.65
2022-08-16T20:49:34.688Z,23.70
2022-08-16T20:51:49.521Z,23.61
2022-08-16T20:54:02.640Z,23.59
2022-08-16T20:56:04.462Z,23.64
2022-08-16T20:58:06.336Z,23.65
2022-08-16T21:00:11.240Z,23.65
2022-08-16T21:02:24.357Z,23.65
2022-08-16T21:04:28.585Z,23.67
2022-08-16T21:06:30.977Z,23.64
2022-08-16T21:08:51.551Z,23.68
2022-08-16T21:10:59.165Z,23.68
2022-08-16T21:13:04.456Z,23.57
2022-08-16T21:15:08.325Z,23.65
2022-08-16T21:17:11.813Z,23.67
2022-08-16T21:19:13.597Z,23.65
2022-08-16T21:21:15.547Z,23.66
2022-08-16T21:23:17.754Z,23.67
2022-08-16T21:25:19.805Z,23.65
2022-08-16T21:27:25.040Z,23.64
2022-08-16T21:29:39.850Z,23.60
2022-08-16T21:31:45.007Z,23.59
2022-08-16T21:33:47.497Z,23.61
2022-08-16T21:35:57.155Z,23.61
2022-08-16T21:38:01.020Z,23.60
2022-08-16T21:40:20.741Z,23.54
2022-08-16T21:42:22.469Z,23.58
2022-08-16T21:44:24.453Z,23.59
2022-08-16T21:46:40.470Z,23.60
2022-08-16T21:48:42.167Z,23.60
2022-08-16T21:50:44.297Z,23.58
2022-08-16T21:52:46.061Z,23.58
2022-08-16T21:54:47.817Z,23.58
2022-08-16T21:56:53.481Z,23.57
2022-08-16T21:58:55.185Z,23.58
2022-08-16T22:00:57.552Z,23.57
2022-08-16T22:03:02.302Z,23.55
2022-08-16T22:05:14.719Z,23.57
2022-08-16T22:07:18.190Z,23.54
2022-08-16T22:09:20.283Z,23.53
2022-08-16T22:11:24.325Z,23.53
2022-08-16T22:13:27.063Z,23.54
2022-08-16T22:15:28.868Z,23.54
2022-08-16T22:17:30.559Z,23.52
2022-08-16T22:19:32.674Z,23.50
2022-08-16T22:21:35.134Z,23.47
2022-08-16T22:23:37.118Z,23.48
2022-08-16T22:25:42.185Z,23.48
2022-08-16T22:27:44.278Z,23.48
2022-08-16T22:29:45.981Z,23.47
2022-08-16T22:31:48.944Z,23.47
2022-08-16T22:34:01.902Z,23.52
2022-08-16T22:36:05.404Z,23.49
2022-08-16T22:38:56.434Z,23.45
2022-08-16T22:40:28.796Z,23.44
2022-08-16T22:42:30.958Z,23.44
2022-08-16T22:44:32.658Z,23.43
2022-08-16T22:46:36.633Z,23.44
2022-08-16T22:48:39.494Z,23.43
2022-08-16T22:52:56.511Z,23.42
2022-08-16T22:55:02.024Z,23.41
2022-08-16T22:57:05.406Z,23.39
2022-08-16T22:59:07.214Z,23.42
2022-08-16T23:01:10.339Z,23.38
2022-08-16T23:03:17.261Z,23.39
2022-08-16T23:05:19.127Z,23.38
2022-08-16T23:07:20.857Z,23.38
2022-08-16T23:09:22.615Z,23.36
2022-08-16T23:11:25.652Z,23.33
2022-08-16T23:13:27.385Z,23.34
2022-08-16T23:15:30.682Z,23.33
2022-08-16T23:17:34.101Z,23.36
2022-08-16T23:19:35.759Z,23.35
2022-08-16T23:21:40.914Z,23.38
2022-08-16T23:23:42.588Z,23.32
2022-08-16T23:25:47.475Z,23.32
2022-08-16T23:27:50.062Z,23.30
2022-08-16T23:29:52.702Z,23.29
2022-08-16T23:31:58.173Z,23.28
2022-08-16T23:34:05.757Z,23.29
2022-08-16T23:36:08.201Z,23.27
2022-08-16T23:38:38.874Z,23.27
2022-08-16T23:40:32.924Z,23.24
2022-08-16T23:42:52.193Z,23.23
2022-08-16T23:44:58.453Z,23.20
2022-08-16T23:47:01.027Z,23.18
2022-08-16T23:49:59.493Z,23.15
2022-08-16T23:51:25.401Z,23.12
2022-08-16T23:53:33.129Z,23.11
2022-08-16T23:55:42.471Z,23.06
2022-08-16T23:57:45.089Z,23.04
2022-08-16T23:59:53.478Z,23.02
